sensor_id;sensor_type;location;lat;lon;timestamp;pressure;altitude;pressure_sealevel;temperature;humidity
35507;BME280;36461;52.018;21.036;2023-04-12T00:02:26;99584.67;;;7.64;83.25
35507;BME280;36461;52.018;21.036;2023-04-12T00:04:55;99589.02;;;7.63;83.54
35507;BME280;36461;52.018;21.036;2023-04-12T00:07:24;99590.96;;;7.62;83.66
35507;BME280;36461;52.018;21.036;2023-04-12T00:09:52;99586.95;;;7.63;83.72
35507;BME280;36461;52.018;21.036;2023-04-12T00:12:20;99582.02;;;7.61;83.70
35507;BME280;36461;52.018;21.036;2023-04-12T00:14:48;99582.31;;;7.57;83.90
35507;BME280;36461;52.018;21.036;2023-04-12T00:17:16;99587.02;;;7.56;83.83
35507;BME280;36461;52.018;21.036;2023-04-12T00:19:46;99589.05;;;7.57;84.18
35507;BME280;36461;52.018;21.036;2023-04-12T00:22:15;99587.13;;;7.63;84.37
35507;BME280;36461;52.018;21.036;2023-04-12T00:24:43;99585.55;;;7.69;84.35
35507;BME280;36461;52.018;21.036;2023-04-12T00:27:11;99580.37;;;7.75;84.51
35507;BME280;36461;52.018;21.036;2023-04-12T00:29:39;99575.55;;;7.80;84.59
35507;BME280;36461;52.018;21.036;2023-04-12T00:32:09;99569.78;;;7.82;84.23
35507;BME280;36461;52.018;21.036;2023-04-12T00:34:37;99567.93;;;7.81;84.16
35507;BME280;36461;52.018;21.036;2023-04-12T00:37:05;99574.30;;;7.81;84.20
35507;BME280;36461;52.018;21.036;2023-04-12T00:39:33;99567.69;;;7.83;84.19
35507;BME280;36461;52.018;21.036;2023-04-12T00:42:04;99567.31;;;7.84;84.29
35507;BME280;36461;52.018;21.036;2023-04-12T00:44:33;99565.34;;;7.86;84.32
35507;BME280;36461;52.018;21.036;2023-04-12T00:47:03;99568.38;;;7.88;84.26
35507;BME280;36461;52.018;21.036;2023-04-12T00:49:33;99566.66;;;7.93;84.20
35507;BME280;36461;52.018;21.036;2023-04-12T00:52:06;99566.41;;;7.95;84.16
35507;BME280;36461;52.018;21.036;2023-04-12T00:54:36;99567.86;;;7.98;83.92
35507;BME280;36461;52.018;21.036;2023-04-12T00:57:04;99572.67;;;7.99;83.92
35507;BME280;36461;52.018;21.036;2023-04-12T00:59:33;99564.25;;;7.98;83.85
35507;BME280;36461;52.018;21.036;2023-04-12T01:02:01;99567.55;;;7.97;83.83
35507;BME280;36461;52.018;21.036;2023-04-12T01:04:30;99573.66;;;8.00;84.07
35507;BME280;36461;52.018;21.036;2023-04-12T01:07:09;99578.05;;;7.98;84.17
35507;BME280;36461;52.018;21.036;2023-04-12T01:15:12;99571.41;;;8.00;83.96
35507;BME280;36461;52.018;21.036;2023-04-12T01:21:17;99572.44;;;8.05;83.74
35507;BME280;36461;52.018;21.036;2023-04-12T01:23:57;99574.34;;;8.05;83.72
35507;BME280;36461;52.018;21.036;2023-04-12T01:26:46;99583.97;;;8.06;83.87
35507;BME280;36461;52.018;21.036;2023-04-12T01:29:18;99588.10;;;8.05;83.61
35507;BME280;36461;52.018;21.036;2023-04-12T01:31:58;99588.86;;;8.04;83.62
35507;BME280;36461;52.018;21.036;2023-04-12T01:34:30;99597.80;;;8.05;83.82
35507;BME280;36461;52.018;21.036;2023-04-12T01:37:01;99595.23;;;8.04;83.62
35507;BME280;36461;52.018;21.036;2023-04-12T01:39:30;99596.66;;;8.02;83.63
35507;BME280;36461;52.018;21.036;2023-04-12T01:41:59;99596.89;;;8.01;83.52
35507;BME280;36461;52.018;21.036;2023-04-12T01:44:28;99591.16;;;8.02;83.57
35507;BME280;36461;52.018;21.036;2023-04-12T01:46:56;99591.73;;;8.01;83.40
35507;BME280;36461;52.018;21.036;2023-04-12T01:49:32;99588.15;;;7.95;83.53
35507;BME280;36461;52.018;21.036;2023-04-12T01:52:11;99585.50;;;7.91;83.53
35507;BME280;36461;52.018;21.036;2023-04-12T01:54:41;99576.20;;;7.86;83.68
35507;BME280;36461;52.018;21.036;2023-04-12T01:57:12;99579.69;;;7.85;83.68
35507;BME280;36461;52.018;21.036;2023-04-12T01:59:42;99577.23;;;7.86;83.80
35507;BME280;36461;52.018;21.036;2023-04-12T02:02:11;99577.59;;;7.86;83.81
35507;BME280;36461;52.018;21.036;2023-04-12T02:04:41;99570.34;;;7.86;83.80
35507;BME280;36461;52.018;21.036;2023-04-12T02:07:10;99572.20;;;7.87;83.89
35507;BME280;36461;52.018;21.036;2023-04-12T02:09:39;99571.92;;;7.90;83.77
35507;BME280;36461;52.018;21.036;2023-04-12T02:12:07;99569.40;;;7.88;83.86
35507;BME280;36461;52.018;21.036;2023-04-12T02:14:36;99567.08;;;7.85;84.00
35507;BME280;36461;52.018;21.036;2023-04-12T02:17:04;99562.14;;;7.84;84.05
35507;BME280;36461;52.018;21.036;2023-04-12T02:19:32;99565.11;;;7.83;84.02
35507;BME280;36461;52.018;21.036;2023-04-12T02:22:01;99558.78;;;7.81;84.03
35507;BME280;36461;52.018;21.036;2023-04-12T02:24:29;99560.02;;;7.81;83.97
35507;BME280;36461;52.018;21.036;2023-04-12T02:26:57;99558.85;;;7.84;83.96
35507;BME280;36461;52.018;21.036;2023-04-12T02:29:26;99561.94;;;7.85;83.96
35507;BME280;36461;52.018;21.036;2023-04-12T02:31:54;99558.96;;;7.86;83.88
35507;BME280;36461;52.018;21.036;2023-04-12T02:34:24;99561.02;;;7.87;83.98
35507;BME280;36461;52.018;21.036;2023-04-12T02:36:58;99563.29;;;7.85;83.94
35507;BME280;36461;52.018;21.036;2023-04-12T02:39:26;99567.14;;;7.84;83.97
35507;BME280;36461;52.018;21.036;2023-04-12T02:41:57;99578.86;;;7.83;83.93
35507;BME280;36461;52.018;21.036;2023-04-12T02:44:28;99578.19;;;7.83;84.01
35507;BME280;36461;52.018;21.036;2023-04-12T02:47:08;99584.98;;;7.86;83.95
35507;BME280;36461;52.018;21.036;2023-04-12T02:49:36;99587.51;;;7.88;83.92
35507;BME280;36461;52.018;21.036;2023-04-12T02:52:06;99586.89;;;7.91;83.92
35507;BME280;36461;52.018;21.036;2023-04-12T02:54:40;99583.91;;;7.93;83.79
35507;BME280;36461;52.018;21.036;2023-04-12T02:57:13;99579.27;;;7.92;83.84
35507;BME280;36461;52.018;21.036;2023-04-12T02:59:44;99581.74;;;7.90;83.82
35507;BME280;36461;52.018;21.036;2023-04-12T03:02:25;99581.09;;;7.89;83.84
35507;BME280;36461;52.018;21.036;2023-04-12T03:04:57;99585.56;;;7.89;83.90
35507;BME280;36461;52.018;21.036;2023-04-12T03:07:34;99584.58;;;7.88;83.82
35507;BME280;36461;52.018;21.036;2023-04-12T03:10:06;99586.73;;;7.90;83.90
35507;BME280;36461;52.018;21.036;2023-04-12T03:12:37;99581.60;;;7.94;83.93
35507;BME280;36461;52.018;21.036;2023-04-12T03:15:13;99587.30;;;7.99;83.77
35507;BME280;36461;52.018;21.036;2023-04-12T03:17:44;99580.67;;;8.01;83.76
35507;BME280;36461;52.018;21.036;2023-04-12T03:20:13;99584.73;;;8.03;83.66
35507;BME280;36461;52.018;21.036;2023-04-12T03:22:46;99588.02;;;8.03;83.62
35507;BME280;36461;52.018;21.036;2023-04-12T03:25:14;99587.41;;;8.00;83.55
35507;BME280;36461;52.018;21.036;2023-04-12T03:27:48;99588.45;;;8.01;83.78
35507;BME280;36461;52.018;21.036;2023-04-12T03:30:17;99589.60;;;8.02;83.74
35507;BME280;36461;52.018;21.036;2023-04-12T03:32:45;99585.27;;;7.98;83.55
35507;BME280;36461;52.018;21.036;2023-04-12T03:35:14;99587.03;;;7.97;83.73
35507;BME280;36461;52.018;21.036;2023-04-12T03:37:42;99581.73;;;7.96;83.54
35507;BME280;36461;52.018;21.036;2023-04-12T03:40:12;99580.86;;;7.96;83.70
35507;BME280;36461;52.018;21.036;2023-04-12T03:42:44;99582.35;;;7.98;83.59
35507;BME280;36461;52.018;21.036;2023-04-12T03:45:13;99584.69;;;8.00;83.77
35507;BME280;36461;52.018;21.036;2023-04-12T03:47:45;99586.33;;;8.02;83.73
35507;BME280;36461;52.018;21.036;2023-04-12T03:50:13;99586.10;;;8.04;83.77
35507;BME280;36461;52.018;21.036;2023-04-12T03:52:48;99585.54;;;8.05;83.65
35507;BME280;36461;52.018;21.036;2023-04-12T03:55:16;99588.98;;;8.05;83.75
35507;BME280;36461;52.018;21.036;2023-04-12T03:57:45;99593.27;;;8.06;83.77
35507;BME280;36461;52.018;21.036;2023-04-12T04:00:14;99593.98;;;8.05;83.72
35507;BME280;36461;52.018;21.036;2023-04-12T04:03:00;99596.09;;;8.04;83.78
35507;BME280;36461;52.018;21.036;2023-04-12T04:05:33;99599.09;;;8.07;83.71
35507;BME280;36461;52.018;21.036;2023-04-12T04:08:03;99598.16;;;8.09;83.64
35507;BME280;36461;52.018;21.036;2023-04-12T04:10:40;99601.50;;;8.12;83.75
35507;BME280;36461;52.018;21.036;2023-04-12T04:13:09;99599.34;;;8.15;83.76
35507;BME280;36461;52.018;21.036;2023-04-12T04:15:38;99601.14;;;8.18;83.71
35507;BME280;36461;52.018;21.036;2023-04-12T04:18:06;99602.73;;;8.21;83.87
35507;BME280;36461;52.018;21.036;2023-04-12T04:20:34;99603.17;;;8.23;83.57
35507;BME280;36461;52.018;21.036;2023-04-12T04:23:02;99605.16;;;8.20;83.72
35507;BME280;36461;52.018;21.036;2023-04-12T04:25:30;99602.25;;;8.20;83.56
35507;BME280;36461;52.018;21.036;2023-04-12T04:28:00;99604.72;;;8.24;83.76
35507;BME280;36461;52.018;21.036;2023-04-12T04:30:30;99605.83;;;8.26;83.59
35507;BME280;36461;52.018;21.036;2023-04-12T04:33:01;99612.80;;;8.30;83.44
35507;BME280;36461;52.018;21.036;2023-04-12T04:35:30;99615.96;;;8.32;83.60
35507;BME280;36461;52.018;21.036;2023-04-12T04:38:23;99615.62;;;8.37;83.59
35507;BME280;36461;52.018;21.036;2023-04-12T04:40:58;99618.66;;;8.39;83.45
35507;BME280;36461;52.018;21.036;2023-04-12T04:43:38;99617.09;;;8.39;83.31
35507;BME280;36461;52.018;21.036;2023-04-12T04:46:07;99626.29;;;8.38;83.36
35507;BME280;36461;52.018;21.036;2023-04-12T04:48:35;99625.59;;;8.38;83.31
35507;BME280;36461;52.018;21.036;2023-04-12T04:51:04;99624.36;;;8.39;83.22
35507;BME280;36461;52.018;21.036;2023-04-12T04:53:32;99627.38;;;8.41;83.37
35507;BME280;36461;52.018;21.036;2023-04-12T04:56:00;99624.10;;;8.41;83.21
35507;BME280;36461;52.018;21.036;2023-04-12T04:58:31;99622.29;;;8.44;83.26
35507;BME280;36461;52.018;21.036;2023-04-12T05:00:59;99629.77;;;8.48;83.38
35507;BME280;36461;52.018;21.036;2023-04-12T05:03:28;99629.41;;;8.52;83.25
35507;BME280;36461;52.018;21.036;2023-04-12T05:05:59;99632.73;;;8.56;83.36
35507;BME280;36461;52.018;21.036;2023-04-12T05:08:28;99628.48;;;8.60;83.19
35507;BME280;36461;52.018;21.036;2023-04-12T05:10:56;99634.33;;;8.60;83.13
35507;BME280;36461;52.018;21.036;2023-04-12T05:13:28;99635.10;;;8.58;83.03
35507;BME280;36461;52.018;21.036;2023-04-12T05:15:56;99635.74;;;8.59;83.19
35507;BME280;36461;52.018;21.036;2023-04-12T05:18:24;99635.02;;;8.60;83.17
35507;BME280;36461;52.018;21.036;2023-04-12T05:20:52;99631.95;;;8.64;83.16
35507;BME280;36461;52.018;21.036;2023-04-12T05:23:20;99633.27;;;8.70;83.22
35507;BME280;36461;52.018;21.036;2023-04-12T05:25:50;99634.38;;;8.78;83.09
35507;BME280;36461;52.018;21.036;2023-04-12T05:28:19;99639.14;;;8.84;83.08
35507;BME280;36461;52.018;21.036;2023-04-12T05:30:47;99637.07;;;8.89;83.02
35507;BME280;36461;52.018;21.036;2023-04-12T05:33:18;99633.76;;;8.95;82.84
35507;BME280;36461;52.018;21.036;2023-04-12T05:35:46;99629.46;;;8.99;82.70
35507;BME280;36461;52.018;21.036;2023-04-12T05:38:14;99627.98;;;9.01;82.63
35507;BME280;36461;52.018;21.036;2023-04-12T05:40:43;99632.77;;;9.07;82.65
35507;BME280;36461;52.018;21.036;2023-04-12T05:43:11;99635.80;;;9.09;82.30
35507;BME280;36461;52.018;21.036;2023-04-12T05:45:40;99638.41;;;9.09;82.28
35507;BME280;36461;52.018;21.036;2023-04-12T05:48:09;99638.68;;;9.11;82.24
35507;BME280;36461;52.018;21.036;2023-04-12T05:50:37;99639.24;;;9.18;82.52
35507;BME280;36461;52.018;21.036;2023-04-12T05:53:05;99635.48;;;9.26;82.35
35507;BME280;36461;52.018;21.036;2023-04-12T05:55:33;99636.25;;;9.33;81.90
35507;BME280;36461;52.018;21.036;2023-04-12T05:58:05;99636.27;;;9.42;81.70
35507;BME280;36461;52.018;21.036;2023-04-12T06:00:34;99638.84;;;9.51;81.77
35507;BME280;36461;52.018;21.036;2023-04-12T06:03:03;99639.27;;;9.53;81.32
35507;BME280;36461;52.018;21.036;2023-04-12T06:05:32;99640.73;;;9.51;81.15
35507;BME280;36461;52.018;21.036;2023-04-12T06:08:01;99638.38;;;9.49;81.24
35507;BME280;36461;52.018;21.036;2023-04-12T06:10:29;99637.31;;;9.54;81.25
35507;BME280;36461;52.018;21.036;2023-04-12T06:12:58;99634.27;;;9.62;81.22
35507;BME280;36461;52.018;21.036;2023-04-12T06:15:26;99629.04;;;9.63;81.15
35507;BME280;36461;52.018;21.036;2023-04-12T06:17:54;99628.23;;;9.70;80.79
35507;BME280;36461;52.018;21.036;2023-04-12T06:20:23;99629.27;;;9.78;80.73
35507;BME280;36461;52.018;21.036;2023-04-12T06:22:51;99631.27;;;9.84;80.65
35507;BME280;36461;52.018;21.036;2023-04-12T06:25:20;99633.70;;;9.84;80.19
35507;BME280;36461;52.018;21.036;2023-04-12T06:27:50;99630.64;;;9.83;80.26
35507;BME280;36461;52.018;21.036;2023-04-12T06:30:18;99634.54;;;9.81;79.66
35507;BME280;36461;52.018;21.036;2023-04-12T06:32:51;99634.64;;;9.74;79.64
35507;BME280;36461;52.018;21.036;2023-04-12T06:35:19;99632.45;;;9.77;79.91
35507;BME280;36461;52.018;21.036;2023-04-12T06:37:48;99631.47;;;9.84;79.82
35507;BME280;36461;52.018;21.036;2023-04-12T06:40:16;99631.10;;;9.88;79.50
35507;BME280;36461;52.018;21.036;2023-04-12T06:42:44;99630.14;;;9.91;79.49
35507;BME280;36461;52.018;21.036;2023-04-12T06:45:12;99635.31;;;9.91;79.12
35507;BME280;36461;52.018;21.036;2023-04-12T06:47:41;99639.20;;;9.89;78.76
35507;BME280;36461;52.018;21.036;2023-04-12T06:50:09;99642.70;;;9.88;78.38
35507;BME280;36461;52.018;21.036;2023-04-12T06:52:38;99639.04;;;9.89;78.43
35507;BME280;36461;52.018;21.036;2023-04-12T06:55:06;99645.02;;;9.95;78.11
35507;BME280;36461;52.018;21.036;2023-04-12T06:57:34;99645.27;;;10.01;78.21
35507;BME280;36461;52.018;21.036;2023-04-12T07:00:03;99649.52;;;10.12;78.06
35507;BME280;36461;52.018;21.036;2023-04-12T07:02:31;99651.06;;;10.12;77.88
35507;BME280;36461;52.018;21.036;2023-04-12T07:04:59;99650.02;;;10.08;77.57
35507;BME280;36461;52.018;21.036;2023-04-12T07:07:27;99643.10;;;10.08;77.44
35507;BME280;36461;52.018;21.036;2023-04-12T07:09:55;99644.83;;;10.16;77.57
35507;BME280;36461;52.018;21.036;2023-04-12T07:12:23;99649.05;;;10.23;77.28
35507;BME280;36461;52.018;21.036;2023-04-12T07:14:51;99654.29;;;10.34;76.97
35507;BME280;36461;52.018;21.036;2023-04-12T07:17:19;99654.70;;;10.36;76.64
35507;BME280;36461;52.018;21.036;2023-04-12T07:19:48;99659.67;;;10.38;76.47
35507;BME280;36461;52.018;21.036;2023-04-12T07:22:16;99658.77;;;10.34;76.30
35507;BME280;36461;52.018;21.036;2023-04-12T07:24:44;99660.48;;;10.35;76.33
35507;BME280;36461;52.018;21.036;2023-04-12T07:27:12;99660.02;;;10.30;76.03
35507;BME280;36461;52.018;21.036;2023-04-12T07:29:40;99662.41;;;10.25;76.06
35507;BME280;36461;52.018;21.036;2023-04-12T07:32:09;99665.92;;;10.20;75.91
35507;BME280;36461;52.018;21.036;2023-04-12T07:34:37;99663.66;;;10.12;75.71
35507;BME280;36461;52.018;21.036;2023-04-12T07:37:06;99659.95;;;10.05;75.71
35507;BME280;36461;52.018;21.036;2023-04-12T07:39:34;99653.58;;;10.01;75.88
35507;BME280;36461;52.018;21.036;2023-04-12T07:42:03;99648.38;;;10.01;75.60
35507;BME280;36461;52.018;21.036;2023-04-12T07:44:31;99654.84;;;10.04;75.71
35507;BME280;36461;52.018;21.036;2023-04-12T07:47:03;99658.26;;;10.13;75.93
35507;BME280;36461;52.018;21.036;2023-04-12T07:49:31;99660.41;;;10.19;75.81
35507;BME280;36461;52.018;21.036;2023-04-12T07:51:59;99660.69;;;10.30;75.74
35507;BME280;36461;52.018;21.036;2023-04-12T07:54:27;99660.80;;;10.36;75.61
35507;BME280;36461;52.018;21.036;2023-04-12T07:57:00;99663.11;;;10.38;75.45
35507;BME280;36461;52.018;21.036;2023-04-12T07:59:30;99664.45;;;10.39;75.51
35507;BME280;36461;52.018;21.036;2023-04-12T08:01:59;99676.15;;;10.40;75.19
35507;BME280;36461;52.018;21.036;2023-04-12T08:04:27;99695.00;;;10.36;75.17
35507;BME280;36461;52.018;21.036;2023-04-12T08:06:55;99700.58;;;10.27;75.09
35507;BME280;36461;52.018;21.036;2023-04-12T08:09:24;99704.60;;;10.22;75.14
35507;BME280;36461;52.018;21.036;2023-04-12T08:11:52;99700.77;;;10.18;75.15
35507;BME280;36461;52.018;21.036;2023-04-12T08:14:20;99699.54;;;10.18;75.27
35507;BME280;36461;52.018;21.036;2023-04-12T08:16:48;99698.27;;;10.20;75.22
35507;BME280;36461;52.018;21.036;2023-04-12T08:19:18;99692.84;;;10.22;75.30
35507;BME280;36461;52.018;21.036;2023-04-12T08:21:46;99688.30;;;10.31;75.44
35507;BME280;36461;52.018;21.036;2023-04-12T08:24:15;99684.15;;;10.48;75.28
35507;BME280;36461;52.018;21.036;2023-04-12T08:26:43;99676.09;;;10.66;74.73
35507;BME280;36461;52.018;21.036;2023-04-12T08:29:11;99670.40;;;10.85;74.79
35507;BME280;36461;52.018;21.036;2023-04-12T08:31:39;99664.02;;;10.97;74.59
35507;BME280;36461;52.018;21.036;2023-04-12T08:34:07;99653.88;;;10.99;74.26
35507;BME280;36461;52.018;21.036;2023-04-12T08:36:35;99646.93;;;11.00;73.50
35507;BME280;36461;52.018;21.036;2023-04-12T08:39:03;99644.48;;;11.00;73.35
35507;BME280;36461;52.018;21.036;2023-04-12T08:41:32;99643.51;;;11.02;73.61
35507;BME280;36461;52.018;21.036;2023-04-12T08:44:04;99638.83;;;11.17;73.60
35507;BME280;36461;52.018;21.036;2023-04-12T08:46:34;99629.43;;;11.44;73.48
35507;BME280;36461;52.018;21.036;2023-04-12T08:49:03;99631.28;;;11.78;73.04
35507;BME280;36461;52.018;21.036;2023-04-12T08:51:32;99625.56;;;11.91;72.20
35507;BME280;36461;52.018;21.036;2023-04-12T08:54:01;99626.91;;;11.92;71.65
35507;BME280;36461;52.018;21.036;2023-04-12T08:56:30;99623.55;;;11.94;71.47
35507;BME280;36461;52.018;21.036;2023-04-12T08:58:59;99630.69;;;11.98;71.07
35507;BME280;36461;52.018;21.036;2023-04-12T09:01:27;99633.72;;;12.06;71.07
35507;BME280;36461;52.018;21.036;2023-04-12T09:03:56;99633.05;;;12.26;70.94
35507;BME280;36461;52.018;21.036;2023-04-12T09:06:24;99630.88;;;12.48;70.65
35507;BME280;36461;52.018;21.036;2023-04-12T09:08:54;99630.45;;;12.63;70.38
35507;BME280;36461;52.018;21.036;2023-04-12T09:11:26;99636.06;;;12.65;69.78
35507;BME280;36461;52.018;21.036;2023-04-12T09:13:58;99639.00;;;12.66;69.55
35507;BME280;36461;52.018;21.036;2023-04-12T09:17:25;99644.45;;;12.54;69.21
35507;BME280;36461;52.018;21.036;2023-04-12T09:22:45;99648.02;;;12.49;68.95
35507;BME280;36461;52.018;21.036;2023-04-12T09:25:17;99642.66;;;12.78;69.03
35507;BME280;36461;52.018;21.036;2023-04-12T09:28:23;99638.77;;;13.02;68.68
35507;BME280;36461;52.018;21.036;2023-04-12T09:31:02;99635.39;;;13.20;68.32
35507;BME280;36461;52.018;21.036;2023-04-12T09:33:36;99635.92;;;13.32;67.78
35507;BME280;36461;52.018;21.036;2023-04-12T09:36:07;99632.23;;;13.56;67.36
35507;BME280;36461;52.018;21.036;2023-04-12T09:38:58;99630.14;;;13.86;67.09
35507;BME280;36461;52.018;21.036;2023-04-12T09:41:29;99630.38;;;14.18;66.63
35507;BME280;36461;52.018;21.036;2023-04-12T09:44:01;99626.39;;;14.38;65.98
35507;BME280;36461;52.018;21.036;2023-04-12T09:46:50;99630.58;;;14.44;65.43
35507;BME280;36461;52.018;21.036;2023-04-12T09:49:40;99630.11;;;14.40;64.83
35507;BME280;36461;52.018;21.036;2023-04-12T09:52:11;99628.64;;;14.23;64.66
35507;BME280;36461;52.018;21.036;2023-04-12T09:54:44;99629.05;;;14.02;64.41
35507;BME280;36461;52.018;21.036;2023-04-12T09:57:16;99630.52;;;13.77;64.30
35507;BME280;36461;52.018;21.036;2023-04-12T09:59:48;99634.41;;;13.51;64.24
35507;BME280;36461;52.018;21.036;2023-04-12T10:02:26;99633.64;;;13.36;64.47
35507;BME280;36461;52.018;21.036;2023-04-12T10:05:09;99630.06;;;13.47;65.06
35507;BME280;36461;52.018;21.036;2023-04-12T10:07:46;99627.88;;;13.92;65.17
35507;BME280;36461;52.018;21.036;2023-04-12T10:10:16;99629.84;;;14.27;64.86
35507;BME280;36461;52.018;21.036;2023-04-12T10:12:48;99630.37;;;14.50;64.53
35507;BME280;36461;52.018;21.036;2023-04-12T10:15:23;99631.16;;;14.69;63.68
35507;BME280;36461;52.018;21.036;2023-04-12T10:18:55;99625.85;;;15.07;63.19
35507;BME280;36461;52.018;21.036;2023-04-12T10:21:29;99627.17;;;15.25;62.67
35507;BME280;36461;52.018;21.036;2023-04-12T10:23:59;99621.70;;;15.29;62.47
35507;BME280;36461;52.018;21.036;2023-04-12T10:26:28;99615.38;;;15.32;62.31
35507;BME280;36461;52.018;21.036;2023-04-12T10:29:24;99620.89;;;15.41;62.12
35507;BME280;36461;52.018;21.036;2023-04-12T10:31:55;99616.58;;;15.57;61.73
35507;BME280;36461;52.018;21.036;2023-04-12T10:34:29;99619.27;;;15.61;61.20
35507;BME280;36461;52.018;21.036;2023-04-12T10:37:00;99612.63;;;15.61;60.67
35507;BME280;36461;52.018;21.036;2023-04-12T10:39:40;99612.84;;;15.66;60.16
35507;BME280;36461;52.018;21.036;2023-04-12T10:42:25;99614.27;;;15.49;59.63
35507;BME280;36461;52.018;21.036;2023-04-12T10:44:56;99619.27;;;15.12;59.30
35507;BME280;36461;52.018;21.036;2023-04-12T10:50:23;99616.92;;;14.80;60.00
35507;BME280;36461;52.018;21.036;2023-04-12T10:55:40;99616.40;;;14.80;60.00
35507;BME280;36461;52.018;21.036;2023-04-12T10:58:10;99610.15;;;15.05;60.42
35507;BME280;36461;52.018;21.036;2023-04-12T11:03:26;99606.01;;;15.32;59.51
35507;BME280;36461;52.018;21.036;2023-04-12T11:06:03;99603.65;;;15.19;59.28
35507;BME280;36461;52.018;21.036;2023-04-12T11:09:42;99604.73;;;15.08;59.31
35507;BME280;36461;52.018;21.036;2023-04-12T11:12:13;99602.40;;;15.17;59.00
35507;BME280;36461;52.018;21.036;2023-04-12T11:19:44;99595.82;;;15.44;59.14
35507;BME280;36461;52.018;21.036;2023-04-12T11:22:14;99594.70;;;15.58;58.70
35507;BME280;36461;52.018;21.036;2023-04-12T11:24:53;99590.05;;;15.65;58.51
35507;BME280;36461;52.018;21.036;2023-04-12T11:27:23;99587.13;;;15.67;57.77
35507;BME280;36461;52.018;21.036;2023-04-12T11:29:54;99580.52;;;15.70;57.48
35507;BME280;36461;52.018;21.036;2023-04-12T11:32:25;99577.70;;;15.67;57.00
35507;BME280;36461;52.018;21.036;2023-04-12T11:34:55;99575.29;;;15.72;56.94
35507;BME280;36461;52.018;21.036;2023-04-12T11:37:24;99573.92;;;15.83;56.55
35507;BME280;36461;52.018;21.036;2023-04-12T11:39:56;99573.75;;;15.91;56.46
35507;BME280;36461;52.018;21.036;2023-04-12T11:42:26;99573.81;;;15.98;56.22
35507;BME280;36461;52.018;21.036;2023-04-12T11:44:56;99570.38;;;15.91;55.94
35507;BME280;36461;52.018;21.036;2023-04-12T11:47:30;99568.02;;;15.80;55.84
35507;BME280;36461;52.018;21.036;2023-04-12T11:49:58;99562.09;;;15.64;55.62
35507;BME280;36461;52.018;21.036;2023-04-12T11:52:28;99563.64;;;15.48;55.53
35507;BME280;36461;52.018;21.036;2023-04-12T11:55:02;99562.61;;;15.42;55.69
35507;BME280;36461;52.018;21.036;2023-04-12T11:57:33;99554.30;;;15.73;56.29
35507;BME280;36461;52.018;21.036;2023-04-12T12:00:01;99553.71;;;16.26;56.31
35507;BME280;36461;52.018;21.036;2023-04-12T12:02:40;99544.31;;;16.73;55.28
35507;BME280;36461;52.018;21.036;2023-04-12T12:05:28;99544.70;;;16.85;53.75
35507;BME280;36461;52.018;21.036;2023-04-12T12:07:57;99537.13;;;16.81;53.74
35507;BME280;36461;52.018;21.036;2023-04-12T12:10:27;99532.55;;;16.76;53.52
35507;BME280;36461;52.018;21.036;2023-04-12T12:13:13;99526.67;;;16.75;53.34
35507;BME280;36461;52.018;21.036;2023-04-12T12:15:45;99523.13;;;16.71;53.30
35507;BME280;36461;52.018;21.036;2023-04-12T12:18:13;99515.20;;;16.60;53.12
35507;BME280;36461;52.018;21.036;2023-04-12T12:20:46;99510.45;;;16.48;53.23
35507;BME280;36461;52.018;21.036;2023-04-12T12:23:30;99511.50;;;16.48;53.65
35507;BME280;36461;52.018;21.036;2023-04-12T12:26:00;99502.77;;;16.48;53.67
35507;BME280;36461;52.018;21.036;2023-04-12T12:28:52;99498.91;;;16.58;54.17
35507;BME280;36461;52.018;21.036;2023-04-12T12:31:22;99498.16;;;16.66;53.68
35507;BME280;36461;52.018;21.036;2023-04-12T12:33:58;99498.29;;;16.59;53.13
35507;BME280;36461;52.018;21.036;2023-04-12T12:36:33;99498.91;;;16.60;53.30
35507;BME280;36461;52.018;21.036;2023-04-12T12:39:06;99498.38;;;16.66;52.97
35507;BME280;36461;52.018;21.036;2023-04-12T12:41:38;99498.65;;;16.81;53.32
35507;BME280;36461;52.018;21.036;2023-04-12T12:44:07;99500.08;;;16.91;52.73
35507;BME280;36461;52.018;21.036;2023-04-12T12:46:35;99500.02;;;16.84;52.74
35507;BME280;36461;52.018;21.036;2023-04-12T12:49:06;99491.45;;;16.89;52.98
35507;BME280;36461;52.018;21.036;2023-04-12T12:51:35;99492.96;;;16.98;52.80
35507;BME280;36461;52.018;21.036;2023-04-12T12:54:03;99494.38;;;17.05;52.45
35507;BME280;36461;52.018;21.036;2023-04-12T12:56:31;99493.83;;;17.10;52.29
35507;BME280;36461;52.018;21.036;2023-04-12T12:58:59;99485.27;;;17.14;52.09
35507;BME280;36461;52.018;21.036;2023-04-12T13:01:27;99480.29;;;17.16;52.08
35507;BME280;36461;52.018;21.036;2023-04-12T13:03:55;99476.27;;;17.18;51.78
35507;BME280;36461;52.018;21.036;2023-04-12T13:06:24;99475.20;;;17.16;51.78
35507;BME280;36461;52.018;21.036;2023-04-12T13:08:55;99476.46;;;17.10;51.73
35507;BME280;36461;52.018;21.036;2023-04-12T13:11:23;99472.48;;;16.93;51.37
35507;BME280;36461;52.018;21.036;2023-04-12T13:13:51;99467.70;;;16.82;51.40
35507;BME280;36461;52.018;21.036;2023-04-12T13:16:19;99469.46;;;16.67;51.52
35507;BME280;36461;52.018;21.036;2023-04-12T13:18:47;99470.60;;;16.46;51.35
35507;BME280;36461;52.018;21.036;2023-04-12T13:21:15;99466.92;;;16.21;51.30
35507;BME280;36461;52.018;21.036;2023-04-12T13:23:43;99463.59;;;16.01;51.48
35507;BME280;36461;52.018;21.036;2023-04-12T13:26:11;99461.77;;;15.72;51.39
35507;BME280;36461;52.018;21.036;2023-04-12T13:28:39;99460.91;;;15.51;51.80
35507;BME280;36461;52.018;21.036;2023-04-12T13:31:07;99459.73;;;15.40;52.20
35507;BME280;36461;52.018;21.036;2023-04-12T13:33:35;99461.83;;;15.40;52.42
35507;BME280;36461;52.018;21.036;2023-04-12T13:36:03;99457.31;;;15.50;52.74
35507;BME280;36461;52.018;21.036;2023-04-12T13:38:31;99453.52;;;15.59;52.76
35507;BME280;36461;52.018;21.036;2023-04-12T13:40:59;99447.56;;;15.65;52.88
35507;BME280;36461;52.018;21.036;2023-04-12T13:43:27;99445.58;;;15.71;52.94